createdAt,value
2018-11-21T00:00:32.411Z,45.07
2018-11-21T00:03:01.436Z,49.27
2018-11-21T00:05:32.105Z,43.07
2018-11-21T00:08:01.181Z,44.50
2018-11-21T00:10:29.945Z,49.10
2018-11-21T00:12:59.268Z,40.07
2018-11-21T00:15:28.070Z,43.53
2018-11-21T00:17:57.645Z,44.30
2018-11-21T00:20:27.080Z,45.60
2018-11-21T00:22:56.547Z,39.67
2018-11-21T00:25:25.305Z,43.30
2018-11-21T00:27:54.205Z,42.50
2018-11-21T00:30:22.979Z,40.80
2018-11-21T00:32:51.468Z,41.60
2018-11-21T00:35:19.951Z,40.80
2018-11-21T00:37:49.015Z,41.27
2018-11-21T00:40:17.859Z,41.50
2018-11-21T00:42:47.141Z,43.50
2018-11-21T00:45:16.415Z,41.47
2018-11-21T00:47:44.895Z,40.37
2018-11-21T00:50:14.281Z,41.60
2018-11-21T00:52:44.131Z,39.50
2018-11-21T00:55:13.017Z,38.53
2018-11-21T00:57:41.532Z,38.07
2018-11-21T01:00:11.661Z,40.40
2018-11-21T01:02:40.500Z,37.00
2018-11-21T01:05:08.963Z,40.17
2018-11-21T01:07:38.242Z,37.43
2018-11-21T01:10:07.146Z,40.43
2018-11-21T01:12:35.695Z,36.40
2018-11-21T01:15:04.977Z,36.73
2018-11-21T01:17:33.769Z,38.40
2018-11-21T01:20:02.317Z,37.73
2018-11-21T01:22:31.910Z,35.87
2018-11-21T01:25:00.722Z,33.97
2018-11-21T01:27:29.550Z,38.50
2018-11-21T01:29:58.323Z,38.47
2018-11-21T01:32:28.189Z,37.67
2018-11-21T01:34:57.514Z,40.67
2018-11-21T01:37:26.025Z,39.57
2018-11-21T01:39:54.947Z,34.73
2018-11-21T01:42:23.462Z,34.83
2018-11-21T01:44:52.033Z,39.17
2018-11-21T01:47:21.189Z,37.53
2018-11-21T01:49:49.692Z,35.63
2018-11-21T01:52:18.580Z,39.87
2018-11-21T01:54:47.479Z,37.97
2018-11-21T01:57:16.359Z,36.67
2018-11-21T01:59:47.805Z,40.50
2018-11-21T02:02:16.861Z,40.77
2018-11-21T02:04:45.667Z,41.03
2018-11-21T02:07:14.187Z,38.07
2018-11-21T02:09:43.025Z,38.60
2018-11-21T02:12:11.570Z,38.53
2018-11-21T02:14:41.148Z,37.40
2018-11-21T02:17:11.887Z,33.93
2018-11-21T02:19:40.751Z,39.30
2018-11-21T02:22:09.874Z,36.53
2018-11-21T02:24:38.884Z,38.13
2018-11-21T02:27:07.471Z,34.50
2018-11-21T02:29:35.962Z,39.20
2018-11-21T02:32:05.673Z,37.43
2018-11-21T02:34:34.477Z,37.23
2018-11-21T02:37:03.776Z,38.23
2018-11-21T02:39:33.021Z,38.00
2018-11-21T02:42:01.573Z,34.83
2018-11-21T02:44:30.463Z,34.67
2018-11-21T02:46:59.473Z,38.90
2018-11-21T02:49:28.641Z,35.70
2018-11-21T02:51:57.177Z,39.37
2018-11-21T02:54:26.143Z,36.87
2018-11-21T02:57:20.096Z,31.50
2018-11-21T02:59:49.526Z,31.17
2018-11-21T03:02:18.495Z,34.33
2018-11-21T03:04:47.593Z,33.50
2018-11-21T03:07:16.522Z,34.13
2018-11-21T03:09:45.050Z,33.03
2018-11-21T03:12:13.993Z,35.13
2018-11-21T03:14:42.884Z,31.80
2018-11-21T03:17:12.269Z,32.90
2018-11-21T03:19:41.125Z,32.87
2018-11-21T03:22:10.598Z,32.33
2018-11-21T03:24:39.491Z,32.87
2018-11-21T03:27:09.970Z,33.50
2018-11-21T03:29:39.846Z,30.93
2018-11-21T03:32:08.595Z,35.37
2018-11-21T03:34:37.456Z,32.33
2018-11-21T03:37:06.044Z,34.53
2018-11-21T03:39:34.963Z,33.20
2018-11-21T03:42:03.430Z,32.80
2018-11-21T03:44:32.833Z,34.27
2018-11-21T03:47:02.094Z,32.87
2018-11-21T03:49:31.095Z,31.73
2018-11-21T03:51:59.932Z,32.13
2018-11-21T03:54:28.422Z,28.67
2018-11-21T03:56:56.878Z,31.23
2018-11-21T03:59:25.451Z,30.50
2018-11-21T04:01:54.294Z,31.03
2018-11-21T04:04:23.137Z,31.60
2018-11-21T04:06:51.987Z,33.37
2018-11-21T04:09:21.169Z,34.77
2018-11-21T04:11:49.619Z,32.83
2018-11-21T04:14:19.045Z,33.57
2018-11-21T04:16:47.893Z,33.80
2018-11-21T04:19:17.131Z,32.90
2018-11-21T04:21:46.629Z,34.87
2018-11-21T04:24:16.160Z,31.20
2018-11-21T04:26:44.680Z,32.07
2018-11-21T04:29:15.286Z,32.77
2018-11-21T04:31:43.797Z,30.90
2018-11-21T04:34:13.110Z,33.07
2018-11-21T04:36:41.633Z,32.97
2018-11-21T04:39:11.081Z,30.97
2018-11-21T04:41:40.239Z,26.93
2018-11-21T04:44:09.193Z,28.20
2018-11-21T04:46:38.437Z,29.83
2018-11-21T04:49:07.694Z,33.00
2018-11-21T04:51:36.498Z,28.53
2018-11-21T04:54:06.223Z,26.50
2018-11-21T04:56:35.547Z,27.03
2018-11-21T04:59:04.014Z,25.30
2018-11-21T05:01:32.515Z,26.30
2018-11-21T05:04:01.059Z,25.13
2018-11-21T05:06:29.563Z,26.47
2018-11-21T05:08:58.650Z,29.63
2018-11-21T05:11:27.545Z,26.70
2018-11-21T05:13:58.868Z,29.87
2018-11-21T05:16:27.868Z,25.43
2018-11-21T05:18:56.400Z,24.17
2018-11-21T05:21:25.307Z,27.17
2018-11-21T05:23:53.904Z,24.93
2018-11-21T05:26:22.817Z,22.77
2018-11-21T05:28:51.817Z,26.87
2018-11-21T05:31:20.415Z,24.47
2018-11-21T05:33:49.919Z,24.67
2018-11-21T05:36:18.954Z,24.50
2018-11-21T05:38:47.471Z,22.90
2018-11-21T05:41:15.984Z,29.33
2018-11-21T05:43:45.254Z,23.97
2018-11-21T05:46:14.796Z,22.53
2018-11-21T05:48:43.343Z,24.17
2018-11-21T05:51:12.474Z,21.57
2018-11-21T05:53:40.929Z,21.33
2018-11-21T05:56:09.762Z,21.43
2018-11-21T05:58:38.695Z,22.03
2018-11-21T06:01:09.184Z,26.07
2018-11-21T06:03:37.747Z,22.43
2018-11-21T06:06:09.847Z,18.73
2018-11-21T06:08:35.095Z,20.73
2018-11-21T06:11:03.566Z,21.17
2018-11-21T06:13:32.843Z,22.17
2018-11-21T06:16:01.714Z,17.97
2018-11-21T06:18:31.329Z,21.17
2018-11-21T06:20:59.790Z,18.83
2018-11-21T06:23:29.443Z,20.67
2018-11-21T06:25:58.022Z,18.43
2018-11-21T06:28:26.917Z,19.90
2018-11-21T06:30:55.742Z,19.60
2018-11-21T06:33:24.983Z,19.63
2018-11-21T06:35:53.851Z,18.23
2018-11-21T06:38:23.298Z,17.90
2018-11-21T06:40:53.020Z,20.13
2018-11-21T06:43:21.971Z,19.27
2018-11-21T06:45:50.825Z,20.23
2018-11-21T06:48:20.004Z,18.27
2018-11-21T06:50:48.454Z,21.37
2018-11-21T06:53:16.904Z,19.87
2018-11-21T06:55:45.597Z,18.37
2018-11-21T06:58:17.684Z,20.90
2018-11-21T07:00:46.943Z,20.30
2018-11-21T07:03:15.479Z,18.87
2018-11-21T07:05:44.576Z,19.67
2018-11-21T07:08:13.070Z,18.30
2018-11-21T07:10:41.852Z,19.00
2018-11-21T07:13:11.214Z,18.37
2018-11-21T07:15:40.065Z,18.33
2018-11-21T07:18:08.939Z,18.87
2018-11-21T07:20:37.393Z,19.90
2018-11-21T07:23:07.761Z,19.87
2018-11-21T07:25:37.251Z,16.80
2018-11-21T07:28:12.701Z,20.30
2018-11-21T07:30:35.772Z,21.57
2018-11-21T07:33:05.168Z,18.77
2018-11-21T07:35:34.341Z,20.10
2018-11-21T07:38:03.448Z,23.27
2018-11-21T07:40:31.914Z,20.97
2018-11-21T07:43:00.722Z,23.17
2018-11-21T07:45:29.679Z,22.73
2018-11-21T07:47:58.582Z,25.57
2018-11-21T07:50:27.745Z,22.80
2018-11-21T07:52:56.935Z,22.80
2018-11-21T07:55:26.061Z,24.03
2018-11-21T07:57:56.308Z,27.43
2018-11-21T08:01:15.593Z,25.70
2018-11-21T08:04:04.093Z,26.03
2018-11-21T08:06:42.276Z,25.67
2018-11-21T08:09:31.176Z,29.07
2018-11-21T08:12:18.978Z,26.87
2018-11-21T08:15:19.221Z,30.77
2018-11-21T08:17:57.426Z,27.43
2018-11-21T08:20:44.328Z,34.77
2018-11-21T08:23:30.341Z,28.07
2018-11-21T08:26:18.367Z,27.37
2018-11-21T08:28:48.824Z,28.13
2018-11-21T08:31:17.796Z,30.97
2018-11-21T08:33:47.915Z,33.80
2018-11-21T08:36:16.763Z,34.30
2018-11-21T08:38:45.274Z,33.20
2018-11-21T08:41:14.155Z,30.83
2018-11-21T08:43:43.038Z,36.37
2018-11-21T08:46:12.004Z,34.17
2018-11-21T08:48:41.038Z,32.33
2018-11-21T08:51:10.246Z,35.43
2018-11-21T08:53:39.134Z,36.90
2018-11-21T08:56:08.316Z,33.43
2018-11-21T08:58:36.880Z,37.23
2018-11-21T09:01:05.679Z,33.47
2018-11-21T09:03:34.126Z,33.93
2018-11-21T09:06:04.492Z,35.87
2018-11-21T09:08:32.085Z,29.40
2018-11-21T09:11:00.867Z,38.07
2018-11-21T09:13:31.354Z,37.53
2018-11-21T09:16:00.732Z,34.23
2018-11-21T09:18:29.561Z,37.30
2018-11-21T09:20:58.432Z,36.90
2018-11-21T09:23:28.153Z,38.63
2018-11-21T09:25:57.483Z,34.67
2018-11-21T09:28:28.090Z,35.90
2018-11-21T09:30:56.829Z,34.47
2018-11-21T09:33:27.940Z,36.30
2018-11-21T09:35:57.490Z,33.93
2018-11-21T09:38:26.063Z,33.07
2018-11-21T09:40:55.035Z,35.07
2018-11-21T09:43:23.910Z,32.07
2018-11-21T09:45:54.732Z,37.07
2018-11-21T09:48:23.567Z,33.40
2018-11-21T09:50:52.115Z,32.17
2018-11-21T09:53:20.680Z,29.70
2018-11-21T09:55:49.752Z,32.53
2018-11-21T09:58:18.702Z,28.93
2018-11-21T10:01:23.943Z,34.20
2018-11-21T10:03:52.787Z,27.27
2018-11-21T10:06:23.709Z,29.07
2018-11-21T10:09:00.016Z,33.53
2018-11-21T10:11:30.521Z,29.03
2018-11-21T10:13:59.108Z,31.07
2018-11-21T10:16:27.569Z,30.77
2018-11-21T10:18:57.543Z,30.30
2018-11-21T10:21:27.480Z,30.97
2018-11-21T10:23:55.939Z,28.67
2018-11-21T10:26:24.896Z,31.03
2018-11-21T10:28:54.290Z,30.60
2018-11-21T10:31:23.213Z,29.27
2018-11-21T10:33:52.075Z,31.67
2018-11-21T10:36:21.323Z,29.93
2018-11-21T10:38:50.768Z,24.07
2018-11-21T10:41:20.194Z,29.27
2018-11-21T10:43:49.388Z,25.60
2018-11-21T10:46:18.212Z,26.97
2018-11-21T10:48:46.715Z,29.67
2018-11-21T10:51:15.900Z,29.87
2018-11-21T10:53:44.696Z,27.33
2018-11-21T10:56:13.948Z,28.13
2018-11-21T10:58:43.159Z,28.97
2018-11-21T11:01:33.787Z,30.00
2018-11-21T11:04:21.362Z,25.63
2018-11-21T11:07:18.048Z,28.67
2018-11-21T11:10:17.937Z,30.20
2018-11-21T11:13:12.258Z,34.50
2018-11-21T11:15:54.691Z,33.47
2018-11-21T11:18:58.043Z,31.90
2018-11-21T11:21:44.377Z,31.43
2018-11-21T11:24:32.273Z,29.57
2018-11-21T11:27:19.869Z,28.70
2018-11-21T11:30:10.633Z,30.00
2018-11-21T11:33:07.310Z,34.63
2018-11-21T11:36:07.286Z,32.13
2018-11-21T11:38:53.741Z,28.43
2018-11-21T11:41:40.305Z,26.73
2018-11-21T11:44:26.518Z,27.73
2018-11-21T11:47:13.194Z,26.40
2018-11-21T11:49:55.790Z,26.47
2018-11-21T11:52:55.633Z,25.17
2018-11-21T11:55:46.457Z,29.27
2018-11-21T11:58:24.262Z,33.50
2018-11-21T12:01:11.635Z,28.37
2018-11-21T12:04:08.990Z,28.50
2018-11-21T12:06:55.379Z,25.67
2018-11-21T12:09:37.695Z,29.83
2018-11-21T12:12:43.556Z,30.27
2018-11-21T12:15:43.589Z,26.97
2018-11-21T12:18:40.593Z,24.63
2018-11-21T12:21:43.653Z,27.83
2018-11-21T12:24:43.756Z,32.73
2018-11-21T12:27:30.312Z,24.63
2018-11-21T12:30:33.987Z,24.87
2018-11-21T12:33:27.921Z,24.27
2018-11-21T12:36:18.821Z,27.67
2018-11-21T12:39:05.653Z,30.50
2018-11-21T12:41:53.319Z,39.20
2018-11-21T12:44:46.949Z,24.80
2018-11-21T12:47:33.153Z,22.87
2018-11-21T12:50:19.768Z,26.40
2018-11-21T12:53:06.752Z,23.70
2018-11-21T12:55:51.620Z,24.80
2018-11-21T12:58:34.836Z,20.93
2018-11-21T13:01:21.556Z,20.53
2018-11-21T13:04:08.822Z,21.87
2018-11-21T13:06:49.526Z,26.90
2018-11-21T13:09:36.238Z,21.87
2018-11-21T13:12:26.978Z,19.33
2018-11-21T13:15:13.860Z,20.30
2018-11-21T13:18:13.580Z,22.10
2018-11-21T13:21:21.740Z,23.17
2018-11-21T13:24:06.547Z,22.50
2018-11-21T13:27:09.333Z,21.07
2018-11-21T13:30:09.659Z,23.97
2018-11-21T13:32:55.966Z,21.93
2018-11-21T13:35:41.119Z,25.07
2018-11-21T13:38:28.799Z,25.10
2018-11-21T13:41:15.445Z,23.20
2018-11-21T13:44:06.973Z,26.70
2018-11-21T13:46:56.275Z,24.70
2018-11-21T13:49:35.527Z,27.27
2018-11-21T13:52:21.767Z,25.77
2018-11-21T13:54:51.076Z,32.00
2018-11-21T13:57:21.019Z,30.63
2018-11-21T13:59:49.512Z,33.30
2018-11-21T14:02:18.328Z,31.30
2018-11-21T14:04:47.320Z,41.47
2018-11-21T14:07:15.857Z,36.07
2018-11-21T14:09:45.332Z,38.50
2018-11-21T14:12:13.872Z,35.60
2018-11-21T14:14:43.263Z,40.53
2018-11-21T14:17:13.757Z,45.03
2018-11-21T14:19:42.530Z,42.63
2018-11-21T14:22:11.277Z,41.33
2018-11-21T14:24:39.869Z,41.17
2018-11-21T14:27:09.089Z,42.57
2018-11-21T14:29:37.593Z,43.27
2018-11-21T14:32:06.415Z,40.70
2018-11-21T14:34:35.308Z,42.43
2018-11-21T14:37:05.650Z,43.10
2018-11-21T14:39:34.673Z,48.00
2018-11-21T14:42:08.580Z,43.53
2018-11-21T14:44:35.561Z,41.03
2018-11-21T14:47:05.497Z,48.60
2018-11-21T14:49:34.672Z,46.13
2018-11-21T14:52:03.896Z,53.33
2018-11-21T14:54:32.351Z,48.60
2018-11-21T14:57:00.837Z,48.40
2018-11-21T14:59:29.721Z,55.47
2018-11-21T15:01:58.999Z,53.10
2018-11-21T15:04:28.230Z,51.37
2018-11-21T15:06:56.674Z,49.70
2018-11-21T15:09:25.911Z,53.63
2018-11-21T15:11:54.897Z,51.10
2018-11-21T15:14:23.540Z,55.67
2018-11-21T15:16:52.024Z,58.50
2018-11-21T15:19:20.761Z,62.43
2018-11-21T15:21:50.112Z,57.53
2018-11-21T15:24:18.568Z,57.20
2018-11-21T15:26:47.569Z,56.57
2018-11-21T15:29:16.696Z,62.93
2018-11-21T15:31:45.292Z,71.10
2018-11-21T15:34:15.063Z,65.10
2018-11-21T15:36:44.250Z,63.27
2018-11-21T15:39:13.723Z,72.50
2018-11-21T15:41:42.240Z,68.83
2018-11-21T15:44:11.468Z,63.57
2018-11-21T15:46:45.721Z,63.67
2018-11-21T15:49:09.640Z,63.03
2018-11-21T15:51:39.270Z,67.07
2018-11-21T15:54:08.267Z,64.03
2018-11-21T15:56:38.073Z,69.37
2018-11-21T15:59:07.259Z,67.80
2018-11-21T16:01:35.778Z,65.57
2018-11-21T16:04:04.792Z,64.33
2018-11-21T16:06:33.425Z,63.57
2018-11-21T16:09:02.419Z,67.03
2018-11-21T16:11:31.918Z,67.00
2018-11-21T16:14:01.183Z,70.20
2018-11-21T16:16:30.155Z,64.50
2018-11-21T16:18:58.883Z,65.03
2018-11-21T16:21:27.701Z,64.57
2018-11-21T16:23:56.524Z,66.97
2018-11-21T16:26:25.918Z,64.27
2018-11-21T16:28:54.886Z,71.70
2018-11-21T16:31:23.427Z,70.50
2018-11-21T16:33:52.424Z,68.33
2018-11-21T16:36:27.143Z,64.53
2018-11-21T16:38:50.710Z,73.60
2018-11-21T16:41:19.670Z,70.03
2018-11-21T16:43:48.274Z,70.93
2018-11-21T16:46:20.042Z,68.93
2018-11-21T16:48:49.788Z,62.10
2018-11-21T16:51:19.924Z,66.23
2018-11-21T16:53:49.247Z,65.07
2018-11-21T16:56:17.947Z,66.60
2018-11-21T16:58:47.208Z,64.20
2018-11-21T17:01:15.768Z,69.30
2018-11-21T17:03:44.224Z,69.40
2018-11-21T17:06:13.178Z,56.47
2018-11-21T17:08:42.553Z,66.60
2018-11-21T17:11:11.930Z,68.23
2018-11-21T17:13:41.414Z,62.93
2018-11-21T17:16:10.459Z,67.57
2018-11-21T17:18:39.318Z,63.57
2018-11-21T17:21:08.405Z,65.77
2018-11-21T17:23:37.249Z,65.20
2018-11-21T17:26:06.500Z,68.33
2018-11-21T17:28:35.146Z,64.97
2018-11-21T17:31:04.128Z,60.97
2018-11-21T17:33:33.565Z,58.07
2018-11-21T17:36:02.452Z,58.47
2018-11-21T17:38:33.624Z,57.60
2018-11-21T17:41:00.592Z,62.47
2018-11-21T17:43:29.110Z,64.10
2018-11-21T17:46:03.968Z,61.77
2018-11-21T17:48:27.423Z,56.17
2018-11-21T17:50:56.051Z,56.60
2018-11-21T17:53:24.974Z,55.67
2018-11-21T17:55:54.319Z,60.37
2018-11-21T17:58:23.259Z,52.40
2018-11-21T18:00:51.960Z,58.80
2018-11-21T18:03:21.216Z,54.03
2018-11-21T18:05:50.055Z,55.20
2018-11-21T18:08:19.048Z,52.83
2018-11-21T18:10:47.705Z,53.20
2018-11-21T18:13:16.288Z,57.37
2018-11-21T18:15:45.689Z,53.70
2018-11-21T18:18:14.861Z,54.50
2018-11-21T18:20:43.524Z,52.73
2018-11-21T18:23:12.787Z,52.83
2018-11-21T18:25:43.465Z,58.90
2018-11-21T18:28:12.045Z,65.57
2018-11-21T18:30:40.683Z,56.63
2018-11-21T18:33:09.560Z,53.93
2018-11-21T18:35:38.220Z,50.30
2018-11-21T18:38:07.432Z,52.90
2018-11-21T18:40:36.524Z,59.33
2018-11-21T18:43:05.157Z,57.50
2018-11-21T18:45:38.932Z,57.37
2018-11-21T18:48:09.749Z,56.17
2018-11-21T18:50:38.826Z,54.13
2018-11-21T18:53:08.527Z,53.47
2018-11-21T18:55:43.406Z,58.83
2018-11-21T18:58:38.991Z,51.67
2018-11-21T19:01:08.453Z,48.80
2018-11-21T19:03:38.371Z,53.27
2018-11-21T19:06:07.796Z,55.73
2018-11-21T19:08:36.565Z,58.00
2018-11-21T19:11:05.464Z,58.00
2018-11-21T19:13:34.412Z,62.13
2018-11-21T19:16:04.303Z,54.53
2018-11-21T19:18:33.336Z,52.27
2018-11-21T19:21:01.950Z,62.20
2018-11-21T19:23:30.991Z,53.03
2018-11-21T19:25:59.852Z,62.33
2018-11-21T19:28:29.491Z,59.73
2018-11-21T19:30:58.427Z,57.80
2018-11-21T19:33:27.432Z,61.20
2018-11-21T19:35:56.168Z,55.63
2018-11-21T19:38:25.733Z,60.23
2018-11-21T19:40:54.843Z,60.23
2018-11-21T19:43:24.177Z,52.63
2018-11-21T19:45:53.351Z,62.53
2018-11-21T19:48:22.698Z,63.17
2018-11-21T19:50:51.499Z,56.37
2018-11-21T19:53:22.054Z,55.70
2018-11-21T19:55:50.842Z,52.50
2018-11-21T19:58:20.018Z,50.67
2018-11-21T20:00:49.629Z,50.87
2018-11-21T20:03:18.295Z,46.40
2018-11-21T20:05:47.772Z,51.67
2018-11-21T20:08:17.383Z,51.97
2018-11-21T20:10:46.518Z,52.20
2018-11-21T20:13:15.750Z,47.03
2018-11-21T20:15:44.525Z,50.70
2018-11-21T20:18:13.334Z,47.07
2018-11-21T20:20:42.241Z,49.53
2018-11-21T20:23:11.384Z,56.03
2018-11-21T20:25:40.275Z,48.73
2018-11-21T20:28:10.273Z,48.87
2018-11-21T20:30:40.179Z,52.90
2018-11-21T20:33:09.206Z,47.20
2018-11-21T20:35:38.331Z,51.67
2018-11-21T20:38:08.743Z,51.27
2018-11-21T20:40:38.172Z,51.93
2018-11-21T20:43:07.093Z,55.27
2018-11-21T20:45:35.927Z,52.20
2018-11-21T20:48:04.752Z,51.33
2018-11-21T20:50:34.073Z,51.13
2018-11-21T20:53:03.122Z,53.20
2018-11-21T20:55:33.059Z,45.27
2018-11-21T20:58:01.910Z,48.80
2018-11-21T21:00:33.466Z,56.13
2018-11-21T21:03:02.424Z,51.77
2018-11-21T21:05:31.223Z,56.70
2018-11-21T21:07:59.995Z,60.67
2018-11-21T21:10:30.726Z,51.13
2018-11-21T21:12:59.085Z,49.90
2018-11-21T21:15:27.543Z,50.47
2018-11-21T21:17:57.003Z,49.63
2018-11-21T21:20:27.481Z,52.10
2018-11-21T21:22:58.628Z,45.23
2018-11-21T21:25:29.135Z,46.07
2018-11-21T21:27:58.204Z,46.90
2018-11-21T21:30:29.360Z,43.20
2018-11-21T21:32:58.112Z,41.57
2018-11-21T21:35:27.988Z,41.27
2018-11-21T21:37:56.963Z,42.13
2018-11-21T21:40:28.229Z,41.47
2018-11-21T21:42:57.051Z,39.57
2018-11-21T21:45:27.714Z,35.70
2018-11-21T21:47:56.596Z,37.07
2018-11-21T21:50:27.041Z,34.10
2018-11-21T21:52:55.640Z,39.30
2018-11-21T21:55:26.179Z,37.40
2018-11-21T21:57:55.827Z,35.47
2018-11-21T22:00:26.938Z,42.70
2018-11-21T22:02:57.192Z,40.70
2018-11-21T22:05:26.767Z,35.40
2018-11-21T22:07:55.642Z,40.33
2018-11-21T22:10:24.461Z,38.17
2018-11-21T22:12:53.785Z,37.13
2018-11-21T22:15:26.846Z,42.57
2018-11-21T22:17:57.725Z,38.57
2018-11-21T22:20:26.612Z,34.57
2018-11-21T22:22:56.454Z,38.63
2018-11-21T22:25:26.116Z,36.37
2018-11-21T22:27:55.289Z,39.23
2018-11-21T22:30:24.917Z,43.53
2018-11-21T22:32:54.340Z,36.57
2018-11-21T22:35:25.174Z,41.10
2018-11-21T22:37:53.896Z,43.23
2018-11-21T22:40:22.970Z,43.90
2018-11-21T22:42:51.428Z,47.37
2018-11-21T22:45:21.247Z,47.10
2018-11-21T22:47:50.041Z,46.27
2018-11-21T22:50:19.893Z,41.00
2018-11-21T22:52:49.572Z,45.47
2018-11-21T22:55:18.480Z,45.57
2018-11-21T22:57:48.722Z,44.43
2018-11-21T23:00:39.244Z,51.47
2018-11-21T23:03:08.694Z,49.07
2018-11-21T23:05:37.782Z,49.87
2018-11-21T23:08:06.707Z,55.37
2018-11-21T23:10:35.287Z,49.80
2018-11-21T23:13:04.770Z,46.13
2018-11-21T23:15:33.580Z,50.17
2018-11-21T23:18:02.407Z,49.27
2018-11-21T23:20:31.843Z,45.63
2018-11-21T23:23:00.678Z,49.33
2018-11-21T23:25:29.965Z,51.37
2018-11-21T23:27:58.868Z,51.53
2018-11-21T23:30:27.741Z,49.67
2018-11-21T23:32:57.110Z,56.13
2018-11-21T23:35:25.682Z,55.77
2018-11-21T23:37:55.086Z,53.87
2018-11-21T23:40:23.685Z,51.03
2018-11-21T23:42:52.520Z,48.20
2018-11-21T23:45:21.399Z,51.33
2018-11-21T23:47:49.954Z,52.67
2018-11-21T23:50:19.165Z,53.50
2018-11-21T23:52:47.619Z,52.07
2018-11-21T23:55:18.480Z,48.33
2018-11-21T23:57:47.304Z,50.70
